Time;durP1;ratioP1;P1;durP2;ratioP2;P2;SDS_P1;SDS_P2;PMS_P1;PMS_P2;Temp;Humidity;BMP_temperature;BMP_pressure;BME280_temperature;BME280_humidity;BME280_pressure;Samples;Min_cycle;Max_cycle;Signal;HPM_P1;HPM_P2
2023/05/08 00:01:51;;;;;;;0.00;0.00;;;10.30;99.90;;;;;;6158225;23;20016;-92
2023/05/08 00:04:19;;;;;;;0.00;0.00;;;10.20;99.90;;;;;;6157414;23;20325;-92
2023/05/08 00:06:45;;;;;;;0.00;0.00;;;10.30;99.90;;;;;;6157161;23;20005;-92
2023/05/08 00:09:10;;;;;;;0.00;0.00;;;10.20;99.90;;;;;;6157186;23;20028;-92
2023/05/08 00:11:36;;;;;;;0.03;0.03;;;10.20;99.90;;;;;;6156685;23;20044;-92
2023/05/08 00:14:02;;;;;;;0.00;0.00;;;;;;;;;;6158658;23;20036;-92
2023/05/08 00:16:27;;;;;;;0.05;0.05;;;10.10;99.90;;;;;;6157008;23;20005;-91
2023/05/08 00:18:53;;;;;;;0.00;0.00;;;10.10;99.90;;;;;;6158622;23;20008;-92
2023/05/08 00:21:19;;;;;;;0.00;0.00;;;;;;;;;;6159048;23;20017;-92
2023/05/08 00:23:45;;;;;;;0.00;0.00;;;;;;;;;;6159286;23;20009;-92
2023/05/08 00:26:11;;;;;;;0.10;0.10;;;9.90;99.90;;;;;;6158152;23;20088;-92
2023/05/08 00:28:36;;;;;;;0.00;0.00;;;9.90;99.90;;;;;;6158632;23;20044;-92
2023/05/08 00:31:02;;;;;;;0.00;0.00;;;9.80;99.90;;;;;;6158806;23;20013;-92
2023/05/08 00:33:28;;;;;;;0.00;0.00;;;9.80;99.90;;;;;;6158240;23;20318;-92
2023/05/08 00:36:04;;;;;;;0.00;0.00;;;9.80;99.90;;;;;;6158725;23;20569;-93
2023/05/08 00:38:31;;;;;;;0.10;0.10;;;9.80;99.90;;;;;;6158054;23;20051;-93
2023/05/08 00:40:57;;;;;;;0.00;0.00;;;9.70;99.90;;;;;;6158425;23;20001;-92
2023/05/08 00:43:25;;;;;;;0.10;0.10;;;9.70;99.90;;;;;;6157532;23;20355;-92
2023/05/08 00:45:51;;;;;;;0.00;0.00;;;9.70;99.90;;;;;;6158095;23;20441;-92
2023/05/08 00:48:17;;;;;;;0.10;0.10;;;10.60;99.90;;;;;;6157830;23;20009;-91
2023/05/08 00:50:43;;;;;;;0.00;0.00;;;9.90;99.90;;;;;;6182044;23;20045;-92
2023/05/08 00:53:11;;;;;;;0.10;0.10;;;9.90;99.90;;;;;;6157236;23;20437;-92
2023/05/08 00:55:37;;;;;;;0.00;0.00;;;9.80;99.90;;;;;;6181654;23;20409;-91
2023/05/08 00:58:03;;;;;;;0.00;0.00;;;10.10;99.90;;;;;;6157179;23;20089;-92
2023/05/08 01:00:31;;;;;;;0.00;0.00;;;10.80;99.90;;;;;;6156384;23;19997;-91
2023/05/08 01:02:58;;;;;;;0.00;0.00;;;10.10;99.90;;;;;;6157727;23;20005;-92
2023/05/08 01:05:24;;;;;;;0.00;0.00;;;9.70;99.90;;;;;;6157305;23;20009;-91
2023/05/08 01:07:50;;;;;;;0.00;0.00;;;9.70;99.90;;;;;;6156364;23;20503;-92
2023/05/08 01:10:15;;;;;;;0.00;0.00;;;9.70;99.90;;;;;;6156913;23;20044;-91
2023/05/08 01:13:07;;;;;;;0.10;0.10;;;9.70;99.90;;;;;;6156208;23;20015;-91
2023/05/08 01:15:41;;;;;;;0.10;0.10;;;9.60;99.90;;;;;;6156920;23;20005;-92
2023/05/08 01:18:21;;;;;;;0.10;0.10;;;10.00;99.90;;;;;;6156972;23;20008;-92
2023/05/08 01:20:47;;;;;;;;;;;9.50;99.90;;;;;;6154345;23;20076;-91
2023/05/08 01:23:48;;;;;;;0.10;0.10;;;9.60;99.90;;;;;;6154537;23;19961;-92
2023/05/08 01:27:11;;;;;;;0.00;0.00;;;9.50;99.90;;;;;;6156633;23;20092;-91
2023/05/08 01:30:21;;;;;;;0.10;0.10;;;9.40;99.90;;;;;;6063583;23;20007;-91
2023/05/08 01:32:59;;;;;;;0.00;0.00;;;9.40;99.90;;;;;;6062312;23;20458;-92
2023/05/08 01:35:31;;;;;;;0.10;0.10;;;9.40;99.90;;;;;;6153811;23;20310;-91
2023/05/08 01:38:09;;;;;;;0.00;0.00;;;9.40;99.90;;;;;;6155102;23;20004;-92
2023/05/08 01:41:07;;;;;;;0.10;0.10;;;9.40;99.90;;;;;;6156360;23;20009;-92
2023/05/08 01:43:53;;;;;;;0.03;0.03;;;9.30;99.90;;;;;;6156626;23;20437;-91
2023/05/08 01:46:25;;;;;;;0.10;0.10;;;9.40;99.90;;;;;;6155814;23;20483;-92
2023/05/08 01:48:59;;;;;;;0.00;0.00;;;9.40;99.90;;;;;;6180922;23;20009;-92
2023/05/08 01:51:27;;;;;;;0.00;0.00;;;9.50;99.90;;;;;;6155273;23;20009;-92
2023/05/08 01:54:02;;;;;;;0.00;0.00;;;9.30;99.90;;;;;;6159026;23;20017;-93
2023/05/08 01:56:29;;;;;;;0.00;0.00;;;9.40;99.90;;;;;;6158207;23;19997;-91
2023/05/08 01:58:57;;;;;;;0.10;0.10;;;9.50;99.90;;;;;;6157860;23;20356;-91
2023/05/08 02:01:25;;;;;;;0.10;0.10;;;9.30;99.90;;;;;;6157248;23;20525;-91
2023/05/08 02:03:52;;;;;;;0.10;0.10;;;10.30;99.90;;;;;;6158240;23;20399;-92
2023/05/08 02:06:20;;;;;;;0.00;0.00;;;9.40;99.90;;;;;;6157300;23;20013;-91
2023/05/08 02:08:47;;;;;;;0.00;0.00;;;9.40;99.90;;;;;;6157770;23;20084;-91
2023/05/08 02:11:14;;;;;;;0.10;0.10;;;9.40;99.90;;;;;;6156627;23;20446;-91
2023/05/08 02:13:41;;;;;;;0.00;0.00;;;9.80;99.90;;;;;;6158743;23;20012;-92
2023/05/08 02:16:09;;;;;;;0.10;0.10;;;9.40;99.90;;;;;;6158567;23;20084;-92
2023/05/08 02:18:36;;;;;;;0.10;0.10;;;10.50;99.90;;;;;;6158823;23;20001;-91
2023/05/08 02:21:04;;;;;;;0.00;0.00;;;9.40;99.90;;;;;;6158153;23;20056;-91
2023/05/08 02:23:32;;;;;;;0.00;0.00;;;9.60;99.90;;;;;;6158265;23;20009;-91
2023/05/08 02:26:00;;;;;;;0.00;0.00;;;10.60;99.90;;;;;;6159032;23;20436;-90
2023/05/08 02:28:28;;;;;;;0.00;0.00;;;9.60;99.90;;;;;;6163009;23;20037;-89
2023/05/08 02:30:55;;;;;;;0.10;0.10;;;9.60;99.90;;;;;;6162521;23;20040;-90
2023/05/08 02:33:21;;;;;;;0.08;0.08;;;9.90;99.90;;;;;;6162699;23;20012;-90
2023/05/08 02:35:49;;;;;;;0.10;0.10;;;10.40;99.90;;;;;;6162844;23;20513;-90
2023/05/08 02:38:18;;;;;;;0.00;0.00;;;9.70;99.90;;;;;;6162596;23;20005;-90
2023/05/08 02:40:48;;;;;;;0.10;0.10;;;10.30;99.90;;;;;;6162777;23;20028;-89
2023/05/08 02:43:14;;;;;;;0.00;0.00;;;9.80;99.90;;;;;;6162188;23;20001;-89
2023/05/08 02:45:49;;;;;;;0.10;0.10;;;9.40;99.90;;;;;;6162488;23;20001;-91
2023/05/08 02:48:27;;;;;;;0.00;0.00;;;9.40;99.90;;;;;;6162115;23;20005;-90
2023/05/08 02:51:03;;;;;;;0.10;0.10;;;9.40;99.90;;;;;;6162187;23;19997;-89
2023/05/08 02:53:36;;;;;;;0.10;0.10;;;9.30;99.90;;;;;;6162389;23;20016;-90
2023/05/08 02:56:19;;;;;;;0.10;0.10;;;9.30;99.90;;;;;;6162761;23;20020;-91
2023/05/08 02:59:08;;;;;;;0.00;0.00;;;9.30;99.90;;;;;;6162786;23;20388;-90
2023/05/08 03:01:47;;;;;;;0.10;0.10;;;10.20;99.90;;;;;;6162774;23;20455;-90
2023/05/08 03:04:37;;;;;;;0.10;0.10;;;9.20;99.90;;;;;;6162672;23;20087;-90
2023/05/08 03:07:04;;;;;;;0.10;0.10;;;9.10;99.90;;;;;;6185642;23;20005;-90
2023/05/08 03:09:46;;;;;;;0.10;0.10;;;9.10;99.90;;;;;;6161635;23;20009;-90
2023/05/08 03:12:16;;;;;;;0.10;0.10;;;9.10;99.90;;;;;;6161456;23;20009;-88
2023/05/08 03:14:55;;;;;;;0.10;0.10;;;9.70;99.90;;;;;;6161081;23;20333;-89
2023/05/08 03:17:23;;;;;;;;;;;9.10;99.90;;;;;;6162112;23;20001;-89
2023/05/08 03:19:54;;;;;;;0.10;0.10;;;9.10;99.90;;;;;;6161778;23;19971;-89
2023/05/08 03:22:21;;;;;;;0.10;0.10;;;9.10;99.90;;;;;;6161567;23;20068;-91
2023/05/08 03:24:48;;;;;;;0.10;0.10;;;9.00;99.90;;;;;;6161667;23;20009;-90
2023/05/08 03:27:14;;;;;;;0.10;0.10;;;9.90;99.90;;;;;;6162529;23;20012;-89
2023/05/08 03:29:42;;;;;;;0.10;0.10;;;9.80;99.90;;;;;;6161772;23;20012;-90
2023/05/08 03:32:08;;;;;;;0.10;0.10;;;;;;;;;;6162123;23;20454;-90
2023/05/08 03:34:34;;;;;;;0.10;0.10;;;9.20;99.90;;;;;;6162167;23;20016;-90
2023/05/08 03:37:00;;;;;;;0.00;0.00;;;;;;;;;;6162583;23;20407;-91
2023/05/08 03:39:26;;;;;;;0.00;0.00;;;;;;;;;;6162271;23;19997;-90
2023/05/08 03:41:52;;;;;;;0.03;0.03;;;;;;;;;;6162305;23;20089;-90
2023/05/08 03:44:19;;;;;;;0.00;0.00;;;9.30;99.90;;;;;;6162079;23;20087;-90
2023/05/08 03:46:47;;;;;;;0.10;0.10;;;9.40;99.90;;;;;;6162345;23;20005;-90
2023/05/08 03:49:14;;;;;;;0.00;0.00;;;9.30;99.90;;;;;;6162040;23;20381;-90
2023/05/08 03:51:40;;;;;;;0.00;0.00;;;;;;;;;;6163410;23;20051;-90
2023/05/08 03:54:06;;;;;;;0.10;0.10;;;;;;;;;;6162230;23;20016;-89
2023/05/08 03:56:32;;;;;;;0.00;0.00;;;9.20;99.90;;;;;;6161438;23;20005;-89
2023/05/08 03:59:24;;;;;;;0.00;0.00;;;9.30;99.90;;;;;;6161835;23;20001;-90
2023/05/08 04:01:57;;;;;;;0.00;0.00;;;9.60;99.90;;;;;;6161190;23;20009;-89
2023/05/08 04:04:38;;;;;;;0.10;0.10;;;9.60;99.90;;;;;;6161315;23;20085;-90
2023/05/08 04:07:14;;;;;;;0.10;0.10;;;9.70;99.90;;;;;;6162033;23;20009;-89
2023/05/08 04:09:58;;;;;;;0.00;0.00;;;9.10;99.90;;;;;;6161100;23;20013;-90
2023/05/08 04:12:50;;;;;;;0.00;0.00;;;9.00;99.90;;;;;;6161332;23;20029;-89
2023/05/08 04:15:21;;;;;;;0.10;0.10;;;9.10;99.90;;;;;;6162709;23;20001;-89
2023/05/08 04:18:05;;;;;;;0.10;0.10;;;9.10;99.90;;;;;;6162938;23;19998;-89
2023/05/08 04:20:32;;;;;;;0.10;0.10;;;9.20;99.90;;;;;;6162438;23;20012;-90
2023/05/08 04:22:58;;;;;;;0.00;0.00;;;10.40;99.90;;;;;;6162713;23;20055;-89
2023/05/08 04:25:25;;;;;;;0.00;0.00;;;9.40;99.90;;;;;;6162749;23;20039;-91
2023/05/08 04:27:51;;;;;;;0.00;0.00;;;9.30;99.90;;;;;;6164403;23;20016;-89
2023/05/08 04:30:18;;;;;;;0.10;0.10;;;;;;;;;;6163280;23;20033;-90
2023/05/08 04:32:44;;;;;;;0.00;0.00;;;;;;;;;;6160031;23;20398;-89
2023/05/08 04:35:12;;;;;;;0.10;0.10;;;;;;;;;;6161020;23;20051;-89
2023/05/08 04:37:38;;;;;;;0.00;0.00;;;;;;;;;;6161562;23;20001;-90
2023/05/08 04:40:04;;;;;;;0.00;0.00;;;9.50;99.90;;;;;;6161067;23;20002;-90
2023/05/08 04:42:30;;;;;;;0.00;0.00;;;;;;;;;;6161434;23;20012;-89
2023/05/08 04:44:55;;;;;;;0.10;0.10;;;9.50;99.90;;;;;;6162170;23;20433;-89
2023/05/08 04:47:22;;;;;;;0.00;0.00;;;10.70;99.90;;;;;;6160057;23;20012;-92
2023/05/08 04:49:48;;;;;;;0.10;0.10;;;9.60;99.90;;;;;;6161333;23;20009;-88
2023/05/08 04:52:14;;;;;;;0.10;0.10;;;10.00;99.90;;;;;;6159186;23;20337;-90
2023/05/08 04:54:40;;;;;;;0.10;0.10;;;;;;;;;;6162003;23;20004;-90
2023/05/08 04:57:07;;;;;;;0.00;0.00;;;;;;;;;;6161516;23;20433;-88
2023/05/08 04:59:33;;;;;;;0.00;0.00;;;;;;;;;;6160179;23;20001;-89
2023/05/08 05:02:01;;;;;;;0.10;0.10;;;;;;;;;;6162117;23;20036;-89
2023/05/08 05:04:27;;;;;;;0.03;0.03;;;;;;;;;;6163057;23;20006;-89
2023/05/08 05:06:53;;;;;;;0.10;0.10;;;;;;;;;;6163302;23;20421;-89
2023/05/08 05:09:19;;;;;;;0.10;0.10;;;;;;;;;;6160170;23;20005;-90
2023/05/08 05:11:45;;;;;;;0.10;0.10;;;;;;;;;;6159863;23;20417;-90
2023/05/08 05:14:11;;;;;;;0.00;0.00;;;;;;;;;;6159120;23;20001;-89
2023/05/08 05:16:37;;;;;;;0.00;0.00;;;;;;;;;;6159797;23;20001;-89
2023/05/08 05:19:03;;;;;;;0.08;0.08;;;;;;;;;;6159333;23;20001;-89
2023/05/08 05:21:29;;;;;;;0.10;0.10;;;;;;;;;;6162208;23;20013;-88
2023/05/08 05:23:55;;;;;;;0.00;0.00;;;;;;;;;;6163426;23;20055;-89
2023/05/08 05:26:22;;;;;;;0.10;0.10;;;;;;;;;;6161156;23;20005;-90
2023/05/08 05:28:48;;;;;;;0.00;0.00;;;;;;;;;;6161807;23;20084;-89
2023/05/08 05:31:13;;;;;;;0.00;0.00;;;;;;;;;;6161804;23;20024;-90
2023/05/08 05:33:39;;;;;;;0.10;0.10;;;10.20;99.90;;;;;;6161313;23;20429;-88
2023/05/08 05:36:06;;;;;;;0.10;0.10;;;10.20;99.90;;;;;;6161202;23;20001;-89
2023/05/08 05:38:32;;;;;;;0.00;0.00;;;;;;;;;;6162503;23;20006;-88
2023/05/08 05:40:58;;;;;;;0.00;0.00;;;;;;;;;;6162141;23;19998;-89
2023/05/08 05:43:24;;;;;;;0.00;0.00;;;10.20;99.90;;;;;;6161685;23;19997;-89
2023/05/08 05:45:50;;;;;;;0.00;0.00;;;;;;;;;;6161112;23;20147;-90
2023/05/08 05:48:15;;;;;;;0.00;0.00;;;10.40;99.90;;;;;;6162719;23;20035;-89
2023/05/08 05:50:41;;;;;;;0.10;0.10;;;;;;;;;;6161481;23;20332;-90
2023/05/08 05:53:08;;;;;;;0.10;0.10;;;;;;;;;;6162115;23;20084;-89
2023/05/08 05:55:34;;;;;;;0.10;0.10;;;;;;;;;;6162519;23;20020;-90
2023/05/08 05:58:00;;;;;;;0.00;0.00;;;;;;;;;;6162223;23;20016;-90
2023/05/08 06:00:26;;;;;;;0.00;0.00;;;;;;;;;;6161690;23;20067;-90
2023/05/08 06:02:52;;;;;;;0.00;0.00;;;10.50;99.90;;;;;;6160983;23;20483;-89
2023/05/08 06:05:21;;;;;;;0.00;0.00;;;10.60;99.90;;;;;;6159730;23;20001;-90
2023/05/08 06:07:47;;;;;;;0.00;0.00;;;;;;;;;;6159359;23;20005;-89
2023/05/08 06:10:13;;;;;;;0.00;0.00;;;;;;;;;;6160022;23;20376;-90
2023/05/08 06:12:39;;;;;;;0.00;0.00;;;10.70;99.90;;;;;;6159664;23;20012;-89
2023/05/08 06:15:05;;;;;;;0.00;0.00;;;10.80;99.90;;;;;;6159851;23;20027;-92
2023/05/08 06:17:31;;;;;;;0.00;0.00;;;;;;;;;;6159594;23;20012;-93
2023/05/08 06:19:57;;;;;;;0.00;0.00;;;11.00;99.90;;;;;;6160055;23;20001;-92
2023/05/08 06:22:23;;;;;;;0.10;0.10;;;;;;;;;;6158900;23;20016;-92
2023/05/08 06:24:52;;;;;;;0.00;0.00;;;11.10;99.90;;;;;;6160927;23;20005;-93
2023/05/08 06:27:18;;;;;;;0.00;0.00;;;;;;;;;;6158798;23;20041;-92
2023/05/08 06:29:44;;;;;;;0.00;0.00;;;;;;;;;;6159655;23;20012;-91
2023/05/08 06:32:10;;;;;;;0.00;0.00;;;;;;;;;;6159087;23;20313;-92
2023/05/08 06:34:35;;;;;;;0.00;0.00;;;11.30;99.90;;;;;;6158687;23;19997;-92
2023/05/08 06:37:01;;;;;;;0.00;0.00;;;11.40;99.90;;;;;;6158363;23;19993;-92
2023/05/08 06:39:26;;;;;;;0.00;0.00;;;11.80;99.90;;;;;;6158432;23;20024;-92
2023/05/08 06:41:52;;;;;;;0.00;0.00;;;11.40;99.90;;;;;;6159340;23;20389;-93
2023/05/08 06:44:17;;;;;;;0.00;0.00;;;12.30;99.90;;;;;;6162742;23;20031;-93
2023/05/08 06:46:43;;;;;;;0.00;0.00;;;;;;;;;;6162429;23;20012;-92
2023/05/08 06:49:12;;;;;;;0.00;0.00;;;11.60;99.90;;;;;;6161687;23;20005;-94
2023/05/08 06:51:38;;;;;;;0.00;0.00;;;11.60;99.90;;;;;;6161773;23;20001;-92
2023/05/08 06:54:07;;;;;;;0.00;0.00;;;;;;;;;;6161043;23;20013;-92
2023/05/08 06:56:33;;;;;;;0.00;0.00;;;;;;;;;;6164332;23;20484;-93
2023/05/08 06:58:59;;;;;;;0.00;0.00;;;;;;;;;;6161943;23;20005;-92
2023/05/08 07:01:25;;;;;;;0.00;0.00;;;;;;;;;;6163242;23;20131;-92
2023/05/08 07:03:51;;;;;;;0.00;0.00;;;;;;;;;;6163181;23;20005;-92
2023/05/08 07:06:17;;;;;;;0.00;0.00;;;;;;;;;;6161009;23;20064;-92
2023/05/08 07:08:42;;;;;;;0.00;0.00;;;12.10;99.90;;;;;;6164950;23;20015;-92
2023/05/08 07:11:11;;;;;;;0.00;0.00;;;;;;;;;;6161345;23;20001;-89
2023/05/08 07:13:37;;;;;;;0.00;0.00;;;;;;;;;;6161267;23;20001;-90
2023/05/08 07:16:08;;;;;;;0.00;0.00;;;12.40;99.90;;;;;;6160164;23;20001;-90
2023/05/08 07:18:34;;;;;;;0.00;0.00;;;;;;;;;;6161324;23;20342;-90
2023/05/08 07:20:59;;;;;;;0.00;0.00;;;12.70;99.90;;;;;;6161305;23;20012;-90
2023/05/08 07:23:26;;;;;;;0.00;0.00;;;12.70;99.90;;;;;;6161887;23;20001;-89
2023/05/08 07:25:53;;;;;;;0.00;0.00;;;;;;;;;;6187394;23;20001;-90
2023/05/08 07:28:19;;;;;;;0.00;0.00;;;12.80;99.90;;;;;;6161109;23;20035;-89
2023/05/08 07:30:45;;;;;;;0.00;0.00;;;;;;;;;;6161990;23;20028;-89
2023/05/08 07:33:11;;;;;;;0.00;0.00;;;;;;;;;;6161387;23;20009;-90
2023/05/08 07:35:38;;;;;;;0.00;0.00;;;13.00;99.90;;;;;;6164650;23;20005;-89
2023/05/08 07:38:05;;;;;;;0.00;0.00;;;12.90;99.90;;;;;;6160745;23;20004;-91
2023/05/08 07:40:31;;;;;;;0.00;0.00;;;;;;;;;;6162152;23;20066;-91
2023/05/08 07:42:56;;;;;;;0.00;0.00;;;13.10;99.90;;;;;;6162252;23;20001;-91
2023/05/08 07:45:22;;;;;;;0.00;0.00;;;13.40;99.90;;;;;;6161902;23;20440;-91
2023/05/08 07:47:57;;;;;;;0.00;0.00;;;13.40;99.90;;;;;;6161287;23;20008;-90
2023/05/08 07:50:24;;;;;;;0.00;0.00;;;13.40;99.90;;;;;;6161261;23;20016;-90
2023/05/08 07:52:51;;;;;;;0.00;0.00;;;13.40;99.90;;;;;;6160850;23;20032;-90
2023/05/08 07:55:18;;;;;;;0.00;0.00;;;13.60;99.90;;;;;;6161046;23;20001;-89
2023/05/08 07:57:44;;;;;;;0.00;0.00;;;;;;;;;;6160586;23;20504;-89
2023/05/08 08:00:12;;;;;;;0.00;0.00;;;13.60;99.90;;;;;;6160989;23;20005;-91
2023/05/08 08:02:38;;;;;;;0.00;0.00;;;;;;;;;;6161607;23;20005;-91
2023/05/08 08:05:07;;;;;;;0.00;0.00;;;13.80;99.90;;;;;;6160842;23;20031;-88
2023/05/08 08:07:33;;;;;;;;;;;13.90;99.90;;;;;;6161870;23;20336;-90
2023/05/08 08:09:59;;;;;;;0.00;0.00;;;15.00;99.90;;;;;;6161801;23;19948;-89
2023/05/08 08:12:26;;;;;;;0.00;0.00;;;13.90;99.90;;;;;;6161192;23;20033;-89
2023/05/08 08:14:52;;;;;;;0.00;0.00;;;;;;;;;;6161816;23;20001;-90
2023/05/08 08:17:17;;;;;;;0.00;0.00;;;14.00;99.90;;;;;;6161311;23;20007;-87
2023/05/08 08:19:43;;;;;;;0.00;0.00;;;14.50;99.90;;;;;;6160909;23;20008;-90
2023/05/08 08:22:08;;;;;;;0.00;0.00;;;14.20;99.90;;;;;;6161653;23;20015;-90
2023/05/08 08:24:34;;;;;;;0.00;0.00;;;14.30;99.90;;;;;;6160001;23;20087;-90
2023/05/08 08:27:01;;;;;;;0.00;0.00;;;14.30;99.90;;;;;;6162074;23;20017;-93
2023/05/08 08:29:27;;;;;;;0.00;0.00;;;14.50;99.90;;;;;;6161311;23;20032;-93
2023/05/08 08:31:53;;;;;;;0.00;0.00;;;;;;;;;;6162883;23;20028;-92
2023/05/08 08:34:19;;;;;;;0.00;0.00;;;;;;;;;;6161786;23;20047;-92
2023/05/08 08:36:45;;;;;;;0.00;0.00;;;;;;;;;;6160143;23;20005;-93
2023/05/08 08:39:10;;;;;;;0.00;0.00;;;14.80;99.90;;;;;;6160299;23;20024;-92
2023/05/08 08:41:40;;;;;;;0.00;0.00;;;15.00;99.90;;;;;;6162881;23;20008;-92
2023/05/08 08:44:06;;;;;;;0.00;0.00;;;;;;;;;;6162877;23;20076;-93
2023/05/08 08:46:33;;;;;;;0.00;0.00;;;;;;;;;;6165175;23;20005;-91
2023/05/08 08:49:02;;;;;;;0.00;0.00;;;15.40;99.90;;;;;;6159384;23;20005;-90
2023/05/08 08:51:39;;;;;;;0.00;0.00;;;15.00;99.90;;;;;;6159323;23;20079;-89
2023/05/08 08:54:13;;;;;;;0.00;0.00;;;15.40;99.90;;;;;;6159459;23;20013;-90
2023/05/08 08:56:41;;;;;;;0.00;0.00;;;15.50;99.90;;;;;;6159752;23;20001;-90
2023/05/08 08:59:08;;;;;;;0.00;0.00;;;15.60;99.90;;;;;;6159038;23;20001;-91
2023/05/08 09:01:37;;;;;;;0.00;0.00;;;15.70;99.90;;;;;;6159661;23;20452;-89
2023/05/08 09:04:02;;;;;;;0.00;0.00;;;15.80;99.90;;;;;;6159633;23;20005;-92
2023/05/08 09:06:28;;;;;;;0.00;0.00;;;15.70;99.90;;;;;;6159318;23;20005;-90
2023/05/08 09:08:58;;;;;;;0.00;0.00;;;15.90;99.90;;;;;;6160285;23;20008;-91
2023/05/08 09:11:24;;;;;;;0.00;0.00;;;15.90;99.90;;;;;;6160415;23;20092;-91
2023/05/08 09:13:50;;;;;;;0.00;0.00;;;15.80;99.90;;;;;;6164651;23;20001;-90
2023/05/08 09:16:16;;;;;;;0.00;0.00;;;16.00;99.90;;;;;;6160943;23;20033;-91
2023/05/08 09:18:42;;;;;;;0.00;0.00;;;16.00;99.90;;;;;;6160868;23;20009;-92
2023/05/08 09:21:08;;;;;;;0.00;0.00;;;16.20;99.90;;;;;;6161207;23;20340;-92
2023/05/08 09:23:53;;;;;;;0.00;0.00;;;16.20;99.90;;;;;;6162336;23;20012;-92
2023/05/08 09:26:27;;;;;;;0.00;0.00;;;16.30;99.90;;;;;;6161373;23;20013;-91
2023/05/08 09:29:17;;;;;;;0.00;0.00;;;16.30;99.90;;;;;;6160201;23;20008;-92
2023/05/08 09:31:48;;;;;;;0.00;0.00;;;16.30;99.90;;;;;;6164185;23;20429;-91
2023/05/08 09:34:26;;;;;;;0.00;0.00;;;16.40;99.90;;;;;;6162356;23;20001;-92
2023/05/08 09:36:53;;;;;;;0.00;0.00;;;17.20;99.90;;;;;;6161565;23;20001;-92
2023/05/08 09:39:24;;;;;;;0.00;0.00;;;16.50;99.90;;;;;;6164308;23;20480;-92
2023/05/08 09:42:00;;;;;;;0.00;0.00;;;17.20;99.90;;;;;;6191318;23;20313;-90
2023/05/08 09:44:26;;;;;;;0.00;0.00;;;;;;;;;;6161858;23;20016;-91
2023/05/08 09:47:07;;;;;;;0.00;0.00;;;16.70;99.90;;;;;;6163308;23;20092;-90
2023/05/08 09:49:33;;;;;;;0.00;0.00;;;16.60;99.90;;;;;;6162206;23;20009;-91
2023/05/08 09:51:58;;;;;;;0.00;0.00;;;16.70;99.90;;;;;;6186380;23;20068;-91
2023/05/08 09:54:24;;;;;;;0.00;0.00;;;16.80;99.90;;;;;;6163088;23;20013;-93
2023/05/08 09:56:50;;;;;;;0.00;0.00;;;16.80;99.90;;;;;;6167525;23;20009;-93
2023/05/08 09:59:25;;;;;;;0.00;0.00;;;16.90;99.90;;;;;;6167138;23;20005;-93
2023/05/08 10:01:51;;;;;;;0.00;0.00;;;17.00;99.90;;;;;;6162755;23;20005;-91
2023/05/08 10:04:17;;;;;;;0.00;0.00;;;17.10;99.90;;;;;;6156418;23;20013;-90
2023/05/08 10:06:43;;;;;;;0.00;0.00;;;17.10;99.90;;;;;;6158394;23;20010;-91
2023/05/08 10:09:13;;;;;;;0.00;0.00;;;17.20;99.90;;;;;;6157415;23;20001;-91
2023/05/08 10:11:40;;;;;;;0.00;0.00;;;17.40;99.90;;;;;;6159069;23;20009;-90
2023/05/08 10:14:06;;;;;;;0.00;0.00;;;17.10;99.90;;;;;;6161071;23;20096;-90
2023/05/08 10:16:40;;;;;;;0.00;0.00;;;17.30;99.90;;;;;;6161229;23;20001;-90
2023/05/08 10:19:14;;;;;;;0.00;0.00;;;17.30;99.90;;;;;;6161441;23;20092;-91
2023/05/08 10:21:43;;;;;;;0.00;0.00;;;17.40;99.90;;;;;;6161097;23;20013;-90
2023/05/08 10:24:16;;;;;;;0.00;0.00;;;17.50;99.90;;;;;;6162189;23;20005;-90
2023/05/08 10:26:51;;;;;;;0.00;0.00;;;17.80;99.90;;;;;;6162571;23;20012;-91
2023/05/08 10:29:20;;;;;;;0.00;0.00;;;17.80;99.90;;;;;;6161111;23;20005;-90
2023/05/08 10:31:46;;;;;;;0.00;0.00;;;;;;;;;;6161862;23;20398;-90
2023/05/08 10:34:18;;;;;;;0.00;0.00;;;17.90;99.90;;;;;;6160431;23;20025;-90
2023/05/08 10:36:46;;;;;;;0.00;0.00;;;17.90;99.90;;;;;;6161840;23;20021;-92
2023/05/08 10:39:15;;;;;;;0.00;0.00;;;17.90;99.90;;;;;;6161285;23;20001;-91
2023/05/08 10:41:41;;;;;;;0.00;0.00;;;;;;;;;;6174262;23;20024;-93
2023/05/08 10:44:08;;;;;;;0.00;0.00;;;18.10;99.90;;;;;;6172149;23;20096;-94
2023/05/08 10:46:56;;;;;;;0.00;0.00;;;18.30;99.90;;;;;;6171614;23;20009;-92
2023/05/08 10:49:36;;;;;;;0.00;0.00;;;18.30;99.90;;;;;;6172213;23;20005;-92
2023/05/08 10:52:28;;;;;;;0.00;0.00;;;16.70;99.90;;;;;;6167891;23;20009;-92
2023/05/08 10:55:03;;;;;;;0.00;0.00;;;18.40;99.90;;;;;;6166324;23;20065;-92
2023/05/08 10:57:29;;;;;;;0.00;0.00;;;18.60;99.90;;;;;;6169534;23;20444;-93
2023/05/08 10:59:55;;;;;;;0.00;0.00;;;18.90;99.90;;;;;;6171726;23;20054;-93
2023/05/08 11:02:28;;;;;;;0.00;0.00;;;18.80;99.90;;;;;;6174877;23;20044;-91
2023/05/08 11:04:55;;;;;;;0.00;0.00;;;21.70;99.90;;;;;;6171054;23;20029;-92
2023/05/08 11:07:29;;;;;;;0.00;0.00;;;19.30;99.90;;;;;;6173775;23;20001;-90
2023/05/08 11:10:12;;;;;;;0.00;0.00;;;19.30;99.90;;;;;;6167169;23;20012;-92
2023/05/08 11:12:38;;;;;;;0.00;0.00;;;19.30;99.90;;;;;;6163621;23;20395;-93
2023/05/08 11:15:05;;;;;;;0.00;0.00;;;19.90;99.90;;;;;;6163397;23;20012;-92
2023/05/08 11:17:32;;;;;;;0.00;0.00;;;19.60;99.90;;;;;;6162435;23;20007;-92
2023/05/08 11:20:13;;;;;;;0.00;0.00;;;19.60;99.90;;;;;;6167336;23;20008;-93
2023/05/08 11:22:46;;;;;;;0.00;0.00;;;19.90;99.90;;;;;;6170958;23;20021;-93
2023/05/08 11:25:12;;;;;;;0.00;0.00;;;;;;;;;;6173020;23;20424;-92
2023/05/08 11:27:51;;;;;;;0.00;0.00;;;19.90;99.90;;;;;;6167789;23;20009;-93
2023/05/08 11:30:24;;;;;;;0.00;0.00;;;19.90;99.90;;;;;;6167451;23;20340;-92
2023/05/08 11:33:02;;;;;;;0.00;0.00;;;20.00;99.90;;;;;;6174148;23;20073;-92
2023/05/08 11:35:41;;;;;;;0.00;0.00;;;20.10;99.90;;;;;;6174973;23;19993;-92
2023/05/08 11:38:19;;;;;;;0.00;0.00;;;20.00;99.90;;;;;;6177072;23;20005;-92
2023/05/08 11:40:55;;;;;;;0.00;0.00;;;20.00;99.90;;;;;;6175459;23;20001;-93
2023/05/08 11:43:27;;;;;;;0.00;0.00;;;20.10;99.90;;;;;;6172995;23;20425;-93
2023/05/08 11:45:53;;;;;;;0.00;0.00;;;20.30;99.90;;;;;;6173365;23;20016;-92
2023/05/08 11:48:20;;;;;;;0.00;0.00;;;;;;;;;;6171460;23;20120;-93
2023/05/08 11:50:46;;;;;;;0.00;0.00;;;20.30;99.90;;;;;;6167406;23;20028;-91
2023/05/08 11:53:12;;;;;;;0.00;0.00;;;;;;;;;;6168750;23;20452;-91
2023/05/08 11:55:39;;;;;;;0.00;0.00;;;20.60;99.90;;;;;;6170611;23;20011;-92
2023/05/08 11:58:11;;;;;;;0.00;0.00;;;20.90;99.40;;;;;;6176649;23;20024;-92
2023/05/08 12:00:44;;;;;;;0.00;0.00;;;20.90;99.70;;;;;;6175601;23;20017;-91
2023/05/08 12:03:18;;;;;;;0.00;0.00;;;23.90;99.90;;;;;;6176183;23;20005;-93
2023/05/08 12:05:45;;;;;;;0.00;0.00;;;20.80;99.20;;;;;;6176490;23;20001;-93
2023/05/08 12:08:12;;;;;;;0.00;0.00;;;20.70;99.90;;;;;;6162373;23;20001;-90
2023/05/08 12:10:58;;;;;;;0.00;0.00;;;20.60;99.50;;;;;;6164750;23;20007;-91
2023/05/08 12:13:28;;;;;;;0.00;0.00;;;20.60;99.80;;;;;;6163637;23;20380;-90
2023/05/08 12:15:59;;;;;;;0.00;0.00;;;23.50;99.90;;;;;;6163550;23;19998;-91
2023/05/08 12:18:36;;;;;;;0.00;0.00;;;20.60;99.90;;;;;;6181760;23;20019;-90
2023/05/08 12:21:08;;;;;;;0.00;0.00;;;;;;;;;;6159859;23;20001;-91
2023/05/08 12:23:34;;;;;;;0.00;0.00;;;;;;;;;;6162188;23;19997;-91
2023/05/08 12:26:00;;;;;;;0.00;0.00;;;21.00;99.30;;;;;;6166364;23;20061;-90
2023/05/08 12:28:26;;;;;;;0.00;0.00;;;;;;;;;;6164206;23;20008;-91
2023/05/08 12:30:53;;;;;;;0.00;0.00;;;;;;;;;;6167513;23;20394;-91
2023/05/08 12:33:19;;;;;;;0.00;0.00;;;21.20;97.30;;;;;;6160349;23;20032;-91
2023/05/08 12:46:10;;;;;;;0.00;0.00;;;21.30;98.90;;;;;;6198271;23;20021;-87
2023/05/08 12:48:36;;;;;;;0.00;0.00;;;;;;;;;;6171239;23;19997;-90
2023/05/08 12:51:03;;;;;;;0.00;0.00;;;21.30;99.90;;;;;;6169704;23;20005;-88
2023/05/08 12:53:30;;;;;;;0.00;0.00;;;21.40;98.50;;;;;;6168248;23;20008;-88
2023/05/08 12:55:59;;;;;;;0.00;0.00;;;20.90;98.60;;;;;;6173377;23;20029;-89
2023/05/08 12:58:34;;;;;;;0.00;0.00;;;21.40;97.80;;;;;;6173328;23;20025;-88
2023/05/08 13:01:10;;;;;;;0.00;0.00;;;21.90;98.20;;;;;;6172502;23;20001;-84
2023/05/08 13:03:36;;;;;;;0.00;0.00;;;23.20;98.50;;;;;;6175725;23;20031;-89
2023/05/08 13:06:02;;;;;;;0.00;0.00;;;21.30;97.90;;;;;;6176005;23;20008;-88
2023/05/08 13:08:32;;;;;;;0.00;0.00;;;21.40;97.10;;;;;;6175468;23;20029;-86
2023/05/08 13:10:58;;;;;;;0.00;0.00;;;;;;;;;;6174390;23;20032;-87
2023/05/08 13:13:26;;;;;;;0.00;0.00;;;21.50;97.60;;;;;;6172933;23;20008;-87
2023/05/08 13:15:53;;;;;;;0.00;0.00;;;21.50;99.40;;;;;;6168943;23;20098;-90
2023/05/08 13:18:22;;;;;;;0.00;0.00;;;21.50;97.90;;;;;;6172272;23;20001;-89
2023/05/08 13:20:48;;;;;;;0.00;0.00;;;;;;;;;;6171583;23;20057;-89
2023/05/08 13:23:14;;;;;;;0.00;0.00;;;;;;;;;;6173203;23;20075;-91
2023/05/08 13:25:40;;;;;;;0.00;0.00;;;;;;;;;;6172484;23;20037;-89
2023/05/08 13:28:07;;;;;;;0.00;0.00;;;21.60;97.50;;;;;;6170928;23;20009;-87
2023/05/08 13:30:34;;;;;;;0.00;0.00;;;21.30;96.30;;;;;;6171302;23;20071;-89
2023/05/08 13:33:00;;;;;;;0.00;0.00;;;21.70;96.10;;;;;;6169951;23;20048;-88
2023/05/08 13:35:27;;;;;;;0.00;0.00;;;21.50;96.30;;;;;;6173072;23;20005;-85
2023/05/08 13:37:53;;;;;;;0.00;0.00;;;21.50;97.20;;;;;;6170393;23;20005;-88
2023/05/08 13:40:18;;;;;;;0.00;0.00;;;21.50;97.50;;;;;;6169151;23;20457;-88